Time;durP1;ratioP1;P1;durP2;ratioP2;P2;SDS_P1;SDS_P2;PMS_P1;PMS_P2;Temp;Humidity;BMP_temperature;BMP_pressure;BME280_temperature;BME280_humidity;BME280_pressure;Samples;Min_cycle;Max_cycle;Signal;HPM_P1;HPM_P2
2021/05/20 00:00:38;;;;;;;8.32;6.45;;;;;;;10.25;77.02;99982.16;5069161;28;20082;-67
2021/05/20 00:03:04;;;;;;;9.18;7.57;;;;;;;10.20;78.05;99977.09;5069123;28;20033;-67
2021/05/20 00:05:29;;;;;;;10.80;6.57;;;;;;;10.15;77.92;99973.81;5068970;28;20180;-67
2021/05/20 00:07:55;;;;;;;7.88;6.70;;;;;;;10.12;78.07;99983.66;5069057;28;20044;-67
2021/05/20 00:10:20;;;;;;;8.52;6.30;;;;;;;10.13;78.46;99977.44;5069047;28;20028;-66
2021/05/20 00:12:46;;;;;;;14.35;8.63;;;;;;;10.11;78.03;99982.78;5068855;28;20056;-66
2021/05/20 00:15:13;;;;;;;9.40;8.23;;;;;;;10.10;78.43;99987.19;5068197;28;20488;-67
2021/05/20 00:17:38;;;;;;;9.45;7.88;;;;;;;10.09;78.57;99988.13;5068573;28;20500;-67
2021/05/20 00:20:05;;;;;;;8.48;6.65;;;;;;;10.03;78.38;99996.28;5067840;28;20044;-69
2021/05/20 00:22:30;;;;;;;8.25;7.28;;;;;;;10.05;79.17;99990.97;5068833;28;20036;-67
2021/05/20 00:24:56;;;;;;;7.38;6.55;;;;;;;10.05;77.91;99993.59;5068094;28;20060;-68
2021/05/20 00:27:21;;;;;;;8.65;7.80;;;;;;;10.03;77.84;100000.69;5057901;28;20032;-67
2021/05/20 00:29:49;;;;;;;12.10;7.70;;;;;;;10.00;78.50;99995.56;5071501;28;20179;-67
2021/05/20 00:32:14;;;;;;;8.48;7.57;;;;;;;9.98;78.12;99998.25;5068896;28;20116;-67
2021/05/20 00:34:39;;;;;;;8.65;6.20;;;;;;;9.96;78.32;99989.56;5069079;28;20432;-67
2021/05/20 00:37:05;;;;;;;8.25;7.45;;;;;;;9.95;78.45;100000.19;5068498;28;20032;-67
2021/05/20 00:39:30;;;;;;;8.45;7.07;;;;;;;9.95;78.45;99992.28;5068901;28;20563;-67
2021/05/20 00:41:56;;;;;;;9.23;7.40;;;;;;;9.92;78.44;99995.91;5070962;28;20051;-67
2021/05/20 00:44:21;;;;;;;7.22;6.43;;;;;;;9.90;78.70;100005.66;5067497;28;20039;-67
2021/05/20 00:46:46;;;;;;;9.27;7.55;;;;;;;9.88;78.63;100005.69;5068271;28;20074;-66
2021/05/20 00:49:12;;;;;;;9.43;8.45;;;;;;;9.86;78.59;100002.28;5069027;28;20143;-67
2021/05/20 00:51:40;;;;;;;7.82;6.63;;;;;;;9.83;78.67;100012.09;5068895;28;20243;-67
2021/05/20 00:54:06;;;;;;;9.30;8.38;;;;;;;9.82;78.77;100005.97;5068187;28;20479;-67
2021/05/20 00:56:35;;;;;;;12.07;9.88;;;;;;;9.85;78.83;100005.00;5067307;28;20043;-67
2021/05/20 00:59:00;;;;;;;15.43;13.80;;;;;;;9.85;79.00;100005.84;5068783;28;20399;-67
2021/05/20 01:01:26;;;;;;;13.20;9.43;;;;;;;9.85;78.83;100010.25;5032714;28;20028;-68
2021/05/20 01:03:52;;;;;;;10.77;9.40;;;;;;;9.82;78.78;100011.25;5068651;28;20484;-68
2021/05/20 01:06:17;;;;;;;13.80;12.40;;;;;;;9.78;78.33;100007.03;5068254;28;20116;-68
2021/05/20 01:08:43;;;;;;;16.75;13.32;;;;;;;9.79;78.68;100016.63;5065294;28;20052;-67
2021/05/20 01:11:08;;;;;;;14.32;11.65;;;;;;;9.78;78.60;100020.19;5050025;28;20400;-67
2021/05/20 01:13:33;;;;;;;13.85;11.63;;;;;;;9.78;79.38;100014.06;5070609;28;20032;-68
2021/05/20 01:15:59;;;;;;;14.95;12.60;;;;;;;9.80;79.05;100017.50;5068193;28;20060;-68
2021/05/20 01:18:24;;;;;;;16.73;14.32;;;;;;;9.82;78.73;100020.91;5068860;28;20032;-67
2021/05/20 01:20:49;;;;;;;17.40;13.55;;;;;;;9.83;78.94;100014.72;5068173;28;20037;-68
2021/05/20 01:23:20;;;;;;;15.65;12.75;;;;;;;9.83;78.80;100017.38;5068282;28;20111;-68
2021/05/20 01:25:48;;;;;;;15.32;13.65;;;;;;;9.84;79.11;100022.53;5067957;28;20087;-68
2021/05/20 01:28:20;;;;;;;20.92;14.63;;;;;;;9.88;79.06;100029.41;5069440;28;20040;-67
2021/05/20 01:30:47;;;;;;;16.85;14.27;;;;;;;9.86;79.47;100036.50;5072200;28;20116;-68
2021/05/20 01:33:12;;;;;;;22.38;17.17;;;;;;;9.87;79.11;100029.47;5071772;28;20036;-67
2021/05/20 01:35:39;;;;;;;16.65;14.45;;;;;;;9.88;79.50;100031.19;5071718;28;20037;-68
2021/05/20 01:40:54;;;;;;;;;;;;;;;9.92;78.46;100030.16;5072762;28;20044;-68
2021/05/20 01:43:20;;;;;;;22.70;20.25;;;;;;;9.93;78.66;100025.72;5072080;28;19951;-67
2021/05/20 01:45:52;;;;;;;30.70;22.27;;;;;;;9.96;78.71;100030.84;5053076;28;20119;-68
2021/05/20 01:48:17;;;;;;;26.25;22.75;;;;;;;9.98;78.75;100034.28;5071691;28;20025;-67
2021/05/20 01:50:43;;;;;;;24.55;20.05;;;;;;;9.99;78.88;100030.72;5072157;28;20040;-67
2021/05/20 01:53:08;;;;;;;26.27;19.55;;;;;;;10.03;78.86;100038.44;5050812;28;20044;-68
2021/05/20 01:55:34;;;;;;;27.25;20.77;;;;;;;10.06;78.66;100034.81;5071160;28;20025;-68
2021/05/20 01:57:59;;;;;;;29.67;24.17;;;;;;;10.08;78.01;100033.81;5068128;28;20392;-68
2021/05/20 02:00:25;;;;;;;29.80;23.27;;;;;;;10.09;77.51;100034.66;5071111;28;20668;-68
2021/05/20 02:02:50;;;;;;;31.13;23.33;;;;;;;10.11;77.51;100024.91;5078764;28;20051;-68
2021/05/20 02:05:16;;;;;;;26.75;23.58;;;;;;;10.14;78.19;100026.56;5071623;28;20063;-68
2021/05/20 02:07:42;;;;;;;30.10;23.05;;;;;;;10.16;77.94;100024.72;5071433;28;20033;-67
2021/05/20 02:10:07;;;;;;;34.42;27.67;;;;;;;10.16;78.23;100030.00;5071837;28;20081;-67
2021/05/20 02:12:33;;;;;;;31.40;25.63;;;;;;;10.16;77.85;100033.47;5071775;28;20091;-67
2021/05/20 02:14:58;;;;;;;32.10;25.48;;;;;;;10.16;77.90;100038.75;5067842;28;20032;-67
2021/05/20 02:17:24;;;;;;;34.47;26.38;;;;;;;10.18;78.16;100036.06;5079172;28;20032;-67
2021/05/20 02:19:49;;;;;;;31.65;26.08;;;;;;;10.19;77.42;100035.13;5069191;28;20057;-67
2021/05/20 02:22:14;;;;;;;34.55;24.88;;;;;;;10.21;77.09;100035.91;5067089;28;20052;-67
2021/05/20 02:24:39;;;;;;;29.58;24.45;;;;;;;10.23;77.27;100040.19;5071427;28;20420;-67
2021/05/20 02:27:05;;;;;;;35.85;30.77;;;;;;;10.23;77.92;100037.56;5053415;28;20377;-67
2021/05/20 02:29:31;;;;;;;38.38;31.65;;;;;;;10.23;77.92;100040.19;5071653;28;20028;-67
2021/05/20 02:31:56;;;;;;;30.65;24.00;;;;;;;10.25;77.35;100042.78;5071318;28;20052;-67
2021/05/20 02:34:21;;;;;;;31.00;26.90;;;;;;;10.23;77.06;100048.09;5071834;28;20067;-67
2021/05/20 02:36:47;;;;;;;32.58;26.08;;;;;;;10.22;77.30;100056.09;5073742;28;20036;-67
2021/05/20 02:39:12;;;;;;;36.55;29.15;;;;;;;10.24;77.14;100062.16;5072273;28;20041;-68
2021/05/20 02:41:37;;;;;;;32.30;25.92;;;;;;;10.21;77.47;100064.91;5071320;28;20439;-67
2021/05/20 02:44:03;;;;;;;29.60;25.83;;;;;;;10.20;77.19;100063.19;5070389;28;20040;-67
2021/05/20 02:46:28;;;;;;;33.03;26.85;;;;;;;10.17;77.84;100052.81;5071778;28;20558;-67
2021/05/20 02:48:54;;;;;;;34.25;28.33;;;;;;;10.16;77.37;100062.47;5071504;28;20035;-68
2021/05/20 02:51:22;;;;;;;37.67;27.55;;;;;;;10.15;77.75;100060.75;5070502;28;20033;-68
2021/05/20 02:53:47;;;;;;;36.63;29.55;;;;;;;10.15;77.75;100065.19;5070599;28;20088;-68
2021/05/20 02:56:13;;;;;;;40.90;31.10;;;;;;;10.15;77.57;100070.44;5070410;28;20044;-68
2021/05/20 02:58:38;;;;;;;44.78;33.45;;;;;;;10.14;77.41;100066.97;5070711;28;20106;-68
2021/05/20 03:01:04;;;;;;;44.08;32.05;;;;;;;10.09;76.25;100061.00;5070546;28;20171;-68
2021/05/20 03:03:29;;;;;;;40.08;30.77;;;;;;;10.07;77.01;100052.34;5070579;28;20044;-68
2021/05/20 03:05:57;;;;;;;41.67;31.63;;;;;;;10.07;77.04;100062.88;5036055;28;20452;-68
2021/05/20 03:08:22;;;;;;;39.97;29.83;;;;;;;10.04;77.29;100070.88;5070067;28;20115;-67
2021/05/20 03:10:48;;;;;;;38.80;30.02;;;;;;;9.99;77.11;100060.56;5070061;28;20183;-69
2021/05/20 03:13:13;;;;;;;42.60;31.20;;;;;;;9.95;77.20;100073.94;5070680;28;20178;-68
2021/05/20 03:15:38;;;;;;;39.55;31.20;;;;;;;9.92;77.61;100068.75;5087487;28;20491;-68
2021/05/20 03:18:04;;;;;;;40.97;31.92;;;;;;;9.87;77.11;100063.72;5090185;28;20087;-68
2021/05/20 03:20:30;;;;;;;50.78;36.47;;;;;;;9.87;77.16;100064.56;5082050;28;20040;-68
2021/05/20 03:22:55;;;;;;;52.53;37.13;;;;;;;9.85;77.87;100069.03;5070245;28;20486;-68
2021/05/20 03:25:21;;;;;;;42.75;31.63;;;;;;;9.77;77.93;100075.53;5069760;28;20024;-67
2021/05/20 03:27:46;;;;;;;48.38;35.40;;;;;;;9.76;78.24;100079.09;5067614;28;25775;-67
2021/05/20 03:30:12;;;;;;;41.15;31.05;;;;;;;9.75;77.69;100078.25;5069273;28;20064;-67
2021/05/20 03:32:38;;;;;;;50.40;35.88;;;;;;;9.80;78.23;100076.28;5069837;28;20121;-67
2021/05/20 03:35:04;;;;;;;53.00;35.50;;;;;;;9.84;77.33;100069.09;5069588;28;20119;-68
2021/05/20 03:37:30;;;;;;;41.97;32.55;;;;;;;9.83;77.00;100070.03;5068213;28;20090;-67
2021/05/20 03:39:55;;;;;;;41.13;30.40;;;;;;;9.84;77.45;100069.94;5070131;28;20491;-67
2021/05/20 03:42:20;;;;;;;45.55;34.20;;;;;;;9.83;77.78;100072.66;5067754;28;20040;-68
2021/05/20 03:44:46;;;;;;;53.95;36.28;;;;;;;9.83;77.19;100070.88;5068990;28;20040;-68
2021/05/20 03:47:11;;;;;;;43.97;33.20;;;;;;;9.82;77.32;100074.44;5069146;28;20044;-67
2021/05/20 03:49:36;;;;;;;39.25;31.83;;;;;;;9.81;77.67;100077.97;5069551;28;20396;-68
2021/05/20 03:52:02;;;;;;;38.97;30.83;;;;;;;9.79;77.53;100078.97;5068902;28;20052;-68
2021/05/20 03:54:27;;;;;;;40.78;31.20;;;;;;;9.77;76.60;100092.22;5069549;28;20102;-68
2021/05/20 03:56:53;;;;;;;40.65;31.45;;;;;;;9.76;76.78;100089.63;5069643;28;20552;-68
2021/05/20 03:59:18;;;;;;;35.72;29.73;;;;;;;9.75;76.08;100085.28;5069175;28;20062;-67
2021/05/20 04:01:43;;;;;;;38.70;29.50;;;;;;;9.75;76.62;100086.13;5069381;28;20024;-70
2021/05/20 04:04:09;;;;;;;42.20;30.10;;;;;;;9.78;76.61;100083.38;5067327;28;20082;-67
2021/05/20 04:06:34;;;;;;;38.95;31.23;;;;;;;9.79;77.13;100089.50;5068823;28;20528;-68
2021/05/20 04:09:00;;;;;;;42.63;32.45;;;;;;;9.78;76.79;100091.28;5069139;28;20055;-67
2021/05/20 04:11:26;;;;;;;38.95;30.05;;;;;;;9.75;75.55;100094.03;5069482;28;20174;-67
2021/05/20 04:13:51;;;;;;;37.33;29.13;;;;;;;9.75;76.26;100087.94;5069063;28;20116;-68
2021/05/20 04:16:18;;;;;;;37.80;29.50;;;;;;;9.77;76.73;100086.06;5068641;28;20059;-67
2021/05/20 04:18:44;;;;;;;44.13;32.83;;;;;;;9.77;76.22;100086.06;5068763;28;20364;-67
2021/05/20 04:21:10;;;;;;;36.15;27.33;;;;;;;9.76;75.45;100082.56;5068826;28;20028;-68
2021/05/20 04:23:42;;;;;;;36.60;28.60;;;;;;;9.79;74.86;100082.44;5068778;28;20044;-68
2021/05/20 04:26:07;;;;;;;34.70;26.05;;;;;;;9.76;74.87;100085.22;5068410;28;20119;-68
2021/05/20 04:28:32;;;;;;;42.13;33.25;;;;;;;9.75;75.43;100091.41;5069247;28;20044;-68
2021/05/20 04:30:58;;;;;;;34.63;26.02;;;;;;;9.74;76.16;100086.19;5047917;28;20104;-68
2021/05/20 04:33:23;;;;;;;36.78;29.10;;;;;;;9.75;75.59;100085.28;5049693;28;20029;-68
2021/05/20 04:35:48;;;;;;;29.33;24.42;;;;;;;9.72;76.02;100080.13;5048585;28;20099;-68
2021/05/20 04:38:14;;;;;;;31.88;23.60;;;;;;;9.74;75.79;100084.41;5049080;28;20087;-67
2021/05/20 04:40:39;;;;;;;36.17;30.45;;;;;;;9.72;75.98;100083.66;5049003;28;20029;-68
2021/05/20 04:43:05;;;;;;;32.83;25.30;;;;;;;9.76;75.69;100085.22;5086530;28;20036;-68
2021/05/20 04:45:31;;;;;;;40.10;29.98;;;;;;;9.74;76.07;100091.47;5089794;28;20046;-68
2021/05/20 04:47:56;;;;;;;37.88;29.83;;;;;;;9.75;76.00;100090.56;5085847;28;20416;-69
2021/05/20 04:50:22;;;;;;;48.70;32.72;;;;;;;9.78;75.50;100095.69;5070496;28;20037;-68
2021/05/20 04:52:47;;;;;;;35.85;26.70;;;;;;;9.81;75.75;100093.78;5070618;28;20070;-68
2021/05/20 04:55:15;;;;;;;33.15;23.85;;;;;;;9.86;75.41;100098.84;5070599;28;20069;-68
2021/05/20 04:57:40;;;;;;;38.88;31.05;;;;;;;9.90;76.65;100092.56;5071523;28;20033;-68
2021/05/20 05:00:08;;;;;;;32.42;24.83;;;;;;;9.95;75.30;100101.13;5070861;28;20106;-68
2021/05/20 05:02:34;;;;;;;44.72;32.33;;;;;;;9.97;75.04;100103.66;5071286;28;20025;-67
2021/05/20 05:04:59;;;;;;;36.22;28.75;;;;;;;10.02;74.99;100091.19;5073055;28;20131;-67
2021/05/20 05:07:25;;;;;;;38.40;28.40;;;;;;;10.21;75.27;100093.88;5073161;28;20059;-67
2021/05/20 05:09:50;;;;;;;38.58;29.58;;;;;;;10.30;73.99;100097.00;5073027;28;20029;-67
2021/05/20 05:12:15;;;;;;;38.00;29.58;;;;;;;10.31;73.81;100095.22;5070604;28;20072;-67
2021/05/20 05:14:41;;;;;;;32.72;27.00;;;;;;;10.29;73.40;100087.41;5072121;28;20033;-67
2021/05/20 05:17:07;;;;;;;36.28;28.95;;;;;;;10.36;74.00;100088.00;5062214;28;20574;-68
2021/05/20 05:19:32;;;;;;;37.50;29.13;;;;;;;10.34;73.45;100087.22;5072271;28;20124;-68
2021/05/20 05:22:02;;;;;;;32.15;25.38;;;;;;;10.35;73.08;100088.06;5072924;28;20032;-68
2021/05/20 05:24:27;;;;;;;34.42;27.77;;;;;;;10.37;73.37;100080.94;5088631;28;20036;-67
2021/05/20 05:26:52;;;;;;;34.22;27.38;;;;;;;10.41;73.67;100086.03;5091921;28;20440;-67
2021/05/20 05:29:18;;;;;;;37.10;30.20;;;;;;;10.41;73.04;100093.94;5092146;28;20035;-67
2021/05/20 05:31:43;;;;;;;33.70;25.70;;;;;;;10.40;73.95;100091.34;5076495;28;20045;-67
2021/05/20 05:34:08;;;;;;;42.28;31.30;;;;;;;10.50;73.47;100095.28;5071582;28;20565;-67
2021/05/20 05:36:34;;;;;;;35.30;27.65;;;;;;;10.50;71.95;100097.94;5071612;28;20063;-67
2021/05/20 05:38:59;;;;;;;33.47;25.83;;;;;;;10.53;71.82;100092.50;5071633;28;20075;-68
2021/05/20 05:41:25;;;;;;;41.85;30.35;;;;;;;10.71;71.45;100099.63;5072593;28;20549;-68
2021/05/20 05:43:50;;;;;;;33.63;29.45;;;;;;;10.75;71.54;100102.97;5071915;28;20500;-68
2021/05/20 05:46:15;;;;;;;34.03;28.08;;;;;;;10.75;71.04;100100.31;5071278;28;20032;-67
2021/05/20 05:48:41;;;;;;;38.67;32.20;;;;;;;10.80;71.39;100100.13;5071484;28;20664;-67
2021/05/20 05:51:11;;;;;;;34.63;26.95;;;;;;;10.93;71.21;100096.88;5071600;28;20036;-67
2021/05/20 05:53:37;;;;;;;35.45;26.98;;;;;;;11.00;70.29;100100.09;5053710;28;20500;-67
2021/05/20 05:56:02;;;;;;;30.60;23.67;;;;;;;11.04;70.55;100095.50;5071199;28;20021;-67
2021/05/20 05:58:28;;;;;;;32.60;25.15;;;;;;;11.10;69.30;100097.84;5071953;28;20029;-67
2021/05/20 06:00:54;;;;;;;32.85;25.60;;;;;;;11.28;69.25;100101.44;5071547;28;20496;-67
2021/05/20 06:03:19;;;;;;;29.13;24.98;;;;;;;11.28;68.98;100109.34;5071452;28;20048;-67
2021/05/20 06:05:48;;;;;;;30.83;23.77;;;;;;;11.30;69.40;100104.88;5071204;28;20110;-68
2021/05/20 06:08:14;;;;;;;27.55;22.40;;;;;;;11.39;69.72;100109.69;5071140;28;20056;-68
2021/05/20 06:10:39;;;;;;;28.10;22.40;;;;;;;11.52;68.19;100104.72;5054525;28;20407;-69
2021/05/20 06:13:05;;;;;;;22.67;19.02;;;;;;;11.47;67.21;100110.19;5052139;28;20036;-68
2021/05/20 06:15:31;;;;;;;19.35;16.92;;;;;;;11.34;67.12;100106.41;5063644;28;20090;-69
2021/05/20 06:17:56;;;;;;;21.48;17.13;;;;;;;11.28;67.36;100104.94;5065033;28;20057;-68
2021/05/20 06:20:22;;;;;;;18.60;15.93;;;;;;;11.48;66.61;100103.13;5063639;28;20043;-68
2021/05/20 06:22:47;;;;;;;20.08;16.95;;;;;;;11.47;66.50;100098.75;5062181;28;20047;-68
2021/05/20 06:25:13;;;;;;;23.17;16.55;;;;;;;11.17;65.90;100104.56;5062122;28;20039;-68
2021/05/20 06:27:38;;;;;;;19.20;16.80;;;;;;;11.29;66.17;100098.72;5060706;28;20055;-68
2021/05/20 06:30:04;;;;;;;18.52;14.43;;;;;;;11.56;65.31;100104.47;5060676;28;20033;-68
2021/05/20 06:32:30;;;;;;;17.92;14.52;;;;;;;11.87;65.69;100099.53;5060125;28;20399;-68
2021/05/20 06:34:55;;;;;;;18.45;15.05;;;;;;;12.12;64.72;100099.97;5068446;28;20025;-61
2021/05/20 06:37:20;;;;;;;19.23;16.48;;;;;;;12.55;63.52;100096.91;5059045;28;20123;-60
2021/05/20 06:39:46;;;;;;;23.30;16.23;;;;;;;12.92;62.87;100094.97;5069919;28;20181;-48
2021/05/20 06:42:12;;;;;;;16.65;14.02;;;;;;;13.10;61.91;100092.19;5072430;28;20581;-50
2021/05/20 06:44:37;;;;;;;16.63;14.50;;;;;;;13.42;60.90;100092.22;5068866;28;20032;-48
2021/05/20 06:47:03;;;;;;;19.38;15.00;;;;;;;13.66;60.53;100097.06;5068666;28;20028;-49
2021/05/20 06:49:29;;;;;;;16.67;13.52;;;;;;;13.96;58.89;100094.44;5068900;28;20055;-49
2021/05/20 06:51:55;;;;;;;20.25;14.75;;;;;;;14.08;58.05;100098.19;5069277;28;20068;-48
2021/05/20 06:54:20;;;;;;;16.33;13.43;;;;;;;14.35;57.51;100096.53;5069011;28;20036;-47
2021/05/20 06:56:50;;;;;;;18.92;14.75;;;;;;;14.58;56.71;100100.47;5069386;28;20028;-47
2021/05/20 07:01:59;;;;;;;14.40;12.38;;;;;;;14.79;56.17;100111.59;5069403;28;20144;-47
2021/05/20 07:04:24;;;;;;;16.95;13.23;;;;;;;14.75;56.05;100112.72;5061583;28;20516;-50
2021/05/20 07:06:49;;;;;;;21.13;15.68;;;;;;;14.94;54.82;100120.41;5058550;28;20580;-54
2021/05/20 07:09:15;;;;;;;16.98;13.25;;;;;;;15.22;55.59;100116.88;5063903;28;20045;-48
2021/05/20 07:11:41;;;;;;;14.88;12.52;;;;;;;15.59;54.05;100125.16;5041733;28;20041;-47
2021/05/20 07:14:07;;;;;;;15.02;10.55;;;;;;;15.73;51.66;100118.13;5059517;28;20040;-49
2021/05/20 07:16:33;;;;;;;15.07;11.43;;;;;;;16.04;51.09;100117.78;5064111;28;20399;-68
2021/05/20 07:18:58;;;;;;;17.80;13.02;;;;;;;16.55;49.87;100122.34;5065592;28;20042;-71
2021/05/20 07:21:24;;;;;;;14.18;12.10;;;;;;;16.74;49.70;100112.16;5065255;28;20658;-68
2021/05/20 07:23:49;;;;;;;14.55;11.85;;;;;;;16.48;50.15;100121.91;5064698;28;20062;-69
2021/05/20 07:26:15;;;;;;;12.50;10.27;;;;;;;15.73;50.63;100126.13;5081259;28;20040;-70
2021/05/20 07:28:40;;;;;;;16.40;13.43;;;;;;;16.27;49.55;100123.41;5084286;28;20040;-62
2021/05/20 07:31:05;;;;;;;15.75;12.40;;;;;;;16.12;50.03;100125.28;5075577;28;20143;-61
2021/05/20 07:33:31;;;;;;;14.70;11.13;;;;;;;17.24;48.12;100122.88;5064434;28;20155;-61
2021/05/20 07:35:56;;;;;;;15.57;13.32;;;;;;;17.51;47.51;100122.69;5064754;28;20051;-62
2021/05/20 07:38:21;;;;;;;15.50;11.40;;;;;;;17.60;46.85;100122.03;5064510;28;20033;-62
2021/05/20 07:40:47;;;;;;;18.80;11.35;;;;;;;17.57;46.68;100126.72;5064051;28;20418;-62
2021/05/20 07:43:12;;;;;;;12.73;11.40;;;;;;;18.07;44.97;100130.19;5064153;28;20028;-61
2021/05/20 07:45:38;;;;;;;12.65;10.35;;;;;;;17.74;45.83;100121.00;5063970;28;20037;-62
2021/05/20 07:48:03;;;;;;;16.00;11.77;;;;;;;17.17;47.17;100125.13;5063895;28;20668;-62
2021/05/20 07:50:29;;;;;;;11.88;10.27;;;;;;;16.78;48.35;100115.47;5064968;28;20395;-62
2021/05/20 07:52:54;;;;;;;12.98;10.35;;;;;;;16.58;48.72;100115.97;5064206;28;20080;-64
2021/05/20 07:55:20;;;;;;;11.75;9.20;;;;;;;16.28;48.96;100117.97;5045544;28;20751;-63
2021/05/20 07:57:45;;;;;;;10.05;7.57;;;;;;;15.79;49.42;100113.25;5063771;28;20040;-62
2021/05/20 08:00:15;;;;;;;11.75;8.20;;;;;;;16.01;49.45;100115.34;5063720;28;20033;-63
2021/05/20 08:02:57;;;;;;;11.48;9.13;;;;;;;17.37;47.95;100117.50;5063767;28;20036;-64
2021/05/20 08:05:35;;;;;;;12.40;10.23;;;;;;;18.00;45.82;100116.44;5063231;28;20040;-62
2021/05/20 08:11:01;;;;;;;17.27;9.10;;;;;;;18.58;43.40;100119.19;5063220;28;20122;-64
2021/05/20 08:13:27;;;;;;;9.23;7.90;;;;;;;18.88;42.94;100113.28;5064084;28;20032;-63
2021/05/20 08:15:52;;;;;;;12.27;7.95;;;;;;;19.15;42.41;100108.53;5063574;28;20579;-62
2021/05/20 08:18:18;;;;;;;10.40;7.75;;;;;;;19.35;40.94;100107.81;5063650;28;20044;-59
2021/05/20 08:20:44;;;;;;;9.00;7.88;;;;;;;19.66;40.59;100105.28;5063195;28;20751;-64
2021/05/20 08:23:09;;;;;;;11.65;7.63;;;;;;;20.24;40.52;100103.16;5063500;28;20032;-60
2021/05/20 08:25:34;;;;;;;8.18;6.82;;;;;;;20.20;39.06;100104.38;5063217;28;20036;-62
2021/05/20 08:28:00;;;;;;;15.65;8.85;;;;;;;20.13;40.04;100108.53;5062671;28;20044;-68
2021/05/20 08:30:25;;;;;;;8.27;7.40;;;;;;;19.77;40.60;100097.28;5060630;28;20611;-69
2021/05/20 08:32:51;;;;;;;8.90;7.70;;;;;;;20.04;39.16;100099.47;5054480;28;20140;-69
2021/05/20 08:35:16;;;;;;;9.88;8.40;;;;;;;20.14;39.80;100094.19;5060341;28;20041;-68
2021/05/20 08:37:42;;;;;;;7.80;7.03;;;;;;;19.39;40.83;100093.19;5062960;28;20043;-68
2021/05/20 08:40:10;;;;;;;13.43;7.50;;;;;;;19.06;42.16;100091.41;5063532;28;20036;-68
2021/05/20 08:42:37;;;;;;;9.93;7.18;;;;;;;19.33;41.52;100093.69;5063232;28;20033;-68
2021/05/20 08:45:18;;;;;;;12.25;8.05;;;;;;;19.85;40.92;100088.59;5062793;28;20032;-68
2021/05/20 08:47:44;;;;;;;13.25;8.10;;;;;;;19.92;39.49;100082.59;5042370;28;20054;-68
2021/05/20 08:50:11;;;;;;;9.55;7.55;;;;;;;19.38;40.26;100088.81;5055735;28;20033;-69
2021/05/20 08:52:39;;;;;;;11.15;7.18;;;;;;;19.47;41.13;100079.22;5043354;28;20048;-69
2021/05/20 08:55:06;;;;;;;9.57;6.75;;;;;;;19.56;40.19;100072.25;5038738;28;20036;-67
2021/05/20 08:57:32;;;;;;;10.70;6.05;;;;;;;19.65;39.14;100072.34;5054959;28;20040;-68
2021/05/20 08:59:57;;;;;;;7.45;5.28;;;;;;;19.37;39.92;100073.78;5062196;28;20037;-68
2021/05/20 09:02:30;;;;;;;8.43;6.10;;;;;;;19.43;40.36;100064.41;5061973;28;20409;-68
2021/05/20 09:05:07;;;;;;;9.82;7.07;;;;;;;19.38;40.35;100064.75;5062137;28;20033;-68
2021/05/20 09:07:36;;;;;;;7.50;6.47;;;;;;;19.33;39.77;100064.28;5059457;28;20036;-69
2021/05/20 09:10:21;;;;;;;8.30;5.78;;;;;;;19.38;40.88;100058.56;5063142;28;20097;-70
2021/05/20 09:13:06;;;;;;;8.98;6.47;;;;;;;19.86;39.09;100058.19;5062725;28;20045;-69
2021/05/20 09:15:37;;;;;;;8.13;5.68;;;;;;;20.13;38.58;100047.84;5063009;28;20044;-69
2021/05/20 09:18:13;;;;;;;6.45;5.40;;;;;;;19.21;40.80;100043.91;5062848;28;20043;-69
2021/05/20 09:20:47;;;;;;;5.97;4.93;;;;;;;18.45;42.02;100044.50;5062693;28;20032;-68
2021/05/20 09:23:19;;;;;;;8.10;5.40;;;;;;;18.34;41.76;100051.66;5059656;28;20044;-68
2021/05/20 09:25:47;;;;;;;7.07;5.20;;;;;;;19.17;39.11;100050.47;5062286;28;20039;-68
2021/05/20 09:28:14;;;;;;;7.97;5.03;;;;;;;20.16;37.18;100052.94;5051800;28;20036;-68
2021/05/20 09:30:42;;;;;;;6.85;4.90;;;;;;;20.89;36.49;100050.22;5041569;28;20103;-68
2021/05/20 09:33:16;;;;;;;6.57;5.50;;;;;;;21.62;34.93;100045.50;5042893;28;20515;-67
2021/05/20 09:35:45;;;;;;;8.73;6.10;;;;;;;22.19;34.47;100052.81;5054993;28;20036;-69
2021/05/20 09:38:12;;;;;;;7.25;5.57;;;;;;;22.43;31.76;100037.09;5062315;28;20066;-68
2021/05/20 09:40:43;;;;;;;6.82;4.88;;;;;;;22.94;30.71;100045.69;5062732;28;20792;-67
2021/05/20 09:43:23;;;;;;;4.78;4.38;;;;;;;23.04;30.19;100037.63;5062450;28;20543;-68
2021/05/20 09:45:54;;;;;;;7.88;4.20;;;;;;;23.44;29.65;100036.38;5060715;28;20064;-68
2021/05/20 09:48:21;;;;;;;4.85;3.83;;;;;;;23.78;29.89;100034.72;5062076;28;20075;-68
2021/05/20 09:50:49;;;;;;;5.22;3.80;;;;;;;23.17;30.10;100031.88;5066097;28;20040;-69
2021/05/20 09:53:17;;;;;;;5.45;4.95;;;;;;;22.75;28.02;100032.34;5064061;28;20117;-68
2021/05/20 09:55:53;;;;;;;5.40;2.33;;;;;;;21.92;28.98;100034.75;5061132;28;20120;-68
2021/05/20 09:58:21;;;;;;;5.32;3.88;;;;;;;22.44;30.00;100025.34;5057779;28;20037;-67
2021/05/20 10:00:48;;;;;;;5.88;3.72;;;;;;;23.26;29.28;100021.06;5065892;28;20040;-69
2021/05/20 10:03:15;;;;;;;4.13;3.60;;;;;;;23.61;28.52;100021.25;5060150;28;20032;-68
2021/05/20 10:05:43;;;;;;;10.07;4.80;;;;;;;23.90;27.41;100023.69;5054876;28;20028;-70
2021/05/20 10:08:11;;;;;;;2.67;2.13;;;;;;;23.19;29.37;100029.88;5045879;28;20029;-69
2021/05/20 10:10:39;;;;;;;4.15;2.42;;;;;;;22.27;29.54;100020.75;5026814;28;20036;-69
2021/05/20 10:13:10;;;;;;;4.15;2.85;;;;;;;21.41;31.08;100023.28;5046491;28;20122;-69
2021/05/20 10:15:36;;;;;;;4.30;2.65;;;;;;;21.83;29.21;100023.91;5043589;28;20029;-69
2021/05/20 10:18:17;;;;;;;4.57;3.72;;;;;;;22.45;28.50;100023.53;5045924;28;20037;-66
2021/05/20 10:20:44;;;;;;;6.03;3.42;;;;;;;22.34;29.20;100013.78;5045913;28;20040;-68
2021/05/20 10:23:17;;;;;;;6.82;3.55;;;;;;;22.88;28.69;100009.47;5049417;28;20029;-68
2021/05/20 10:25:43;;;;;;;4.80;3.03;;;;;;;23.48;27.76;100002.75;5045465;28;20043;-70
2021/05/20 10:28:10;;;;;;;4.57;3.13;;;;;;;23.77;27.28;99991.78;5046946;28;20029;-68
2021/05/20 10:30:39;;;;;;;5.15;3.33;;;;;;;23.71;27.03;99992.38;5049870;28;20037;-68
2021/05/20 10:33:04;;;;;;;3.97;3.53;;;;;;;23.84;27.14;99989.31;5046186;28;20072;-67
2021/05/20 10:35:52;;;;;;;4.85;3.28;;;;;;;23.05;28.85;99989.03;5045991;28;20068;-69
2021/05/20 10:38:28;;;;;;;5.07;3.13;;;;;;;22.76;29.69;99981.09;5044755;28;20074;-67
2021/05/20 10:41:23;;;;;;;5.20;3.75;;;;;;;22.99;30.21;99975.34;5040716;28;20048;-68
2021/05/20 10:43:50;;;;;;;8.13;3.70;;;;;;;23.19;28.70;99970.72;5064487;28;20053;-70
2021/05/20 10:46:17;;;;;;;4.65;2.92;;;;;;;23.72;26.64;99975.22;5065531;28;20557;-68
2021/05/20 10:49:01;;;;;;;7.97;3.40;;;;;;;23.23;27.36;99969.38;5066147;28;20036;-69
2021/05/20 10:51:29;;;;;;;3.90;3.00;;;;;;;22.59;27.55;99969.28;5060576;28;20048;-69
2021/05/20 10:54:03;;;;;;;5.45;3.40;;;;;;;22.49;29.10;99965.81;5056657;28;21004;-72
2021/05/20 10:56:29;;;;;;;4.13;3.50;;;;;;;21.86;29.97;99966.41;5038427;28;20574;-70
2021/05/20 10:58:57;;;;;;;6.90;3.35;;;;;;;21.47;30.41;99968.25;5066559;28;20549;-67
2021/05/20 11:01:24;;;;;;;5.95;3.25;;;;;;;21.30;31.33;99965.25;5059103;28;20185;-68
2021/05/20 11:03:53;;;;;;;3.95;2.28;;;;;;;21.01;29.26;99960.69;5064940;28;20036;-71
2021/05/20 11:06:21;;;;;;;2.90;2.38;;;;;;;20.89;31.45;99958.28;5064218;28;20491;-69
2021/05/20 11:08:46;;;;;;;7.22;2.88;;;;;;;20.35;32.83;99949.59;5065268;28;20024;-70
2021/05/20 11:11:34;;;;;;;7.85;3.60;;;;;;;20.07;32.95;99949.31;5065414;28;20048;-68
2021/05/20 11:14:12;;;;;;;7.47;3.47;;;;;;;19.94;33.26;99949.53;5069894;28;20150;-70
2021/05/20 11:16:38;;;;;;;4.78;2.75;;;;;;;19.95;32.72;99945.03;5084947;28;20032;-68
2021/05/20 11:19:20;;;;;;;4.40;2.60;;;;;;;19.94;32.74;99949.53;5084437;28;20024;-67
2021/05/20 11:22:08;;;;;;;3.47;2.60;;;;;;;19.86;33.14;99940.44;5084851;28;20093;-68
2021/05/20 11:24:35;;;;;;;3.42;2.63;;;;;;;19.77;32.07;99936.75;5084847;28;20762;-68
2021/05/20 11:27:04;;;;;;;6.93;2.95;;;;;;;19.65;32.62;99930.59;5084456;28;20115;-68